sensor_id;sensor_type;location;lat;lon;timestamp;P1;durP1;ratioP1;P2;durP2;ratioP2
7160;SDS011;3622;53.576;9.978;2023-02-20T00:00:22;1.60;;;1.50;;
7160;SDS011;3622;53.576;9.978;2023-02-20T00:02:49;2.17;;;1.97;;
7160;SDS011;3622;53.576;9.978;2023-02-20T00:05:16;2.47;;;1.70;;
7160;SDS011;3622;53.576;9.978;2023-02-20T00:07:42;1.70;;;1.47;;
7160;SDS011;3622;53.576;9.978;2023-02-20T00:10:08;4.30;;;1.93;;
7160;SDS011;3622;53.576;9.978;2023-02-20T00:12:34;2.53;;;1.97;;
7160;SDS011;3622;53.576;9.978;2023-02-20T00:15:00;3.70;;;2.10;;
7160;SDS011;3622;53.576;9.978;2023-02-20T00:17:26;4.40;;;1.63;;
7160;SDS011;3622;53.576;9.978;2023-02-20T00:19:53;2.53;;;1.80;;
7160;SDS011;3622;53.576;9.978;2023-02-20T00:22:22;2.20;;;1.53;;
7160;SDS011;3622;53.576;9.978;2023-02-20T00:24:48;3.70;;;1.70;;
7160;SDS011;3622;53.576;9.978;2023-02-20T00:27:14;3.83;;;2.07;;
7160;SDS011;3622;53.576;9.978;2023-02-20T00:29:40;2.03;;;1.83;;
7160;SDS011;3622;53.576;9.978;2023-02-20T00:32:08;3.10;;;2.10;;
7160;SDS011;3622;53.576;9.978;2023-02-20T00:34:34;8.23;;;2.00;;
7160;SDS011;3622;53.576;9.978;2023-02-20T00:37:00;2.07;;;1.97;;
7160;SDS011;3622;53.576;9.978;2023-02-20T00:39:26;2.87;;;1.83;;
7160;SDS011;3622;53.576;9.978;2023-02-20T00:41:52;5.07;;;2.10;;
7160;SDS011;3622;53.576;9.978;2023-02-20T00:44:19;2.40;;;1.93;;
7160;SDS011;3622;53.576;9.978;2023-02-20T00:46:45;4.07;;;1.93;;
7160;SDS011;3622;53.576;9.978;2023-02-20T00:49:11;2.33;;;2.07;;
7160;SDS011;3622;53.576;9.978;2023-02-20T00:51:37;5.53;;;2.23;;
7160;SDS011;3622;53.576;9.978;2023-02-20T00:54:03;4.87;;;2.47;;
7160;SDS011;3622;53.576;9.978;2023-02-20T00:56:29;5.60;;;1.90;;
7160;SDS011;3622;53.576;9.978;2023-02-20T00:58:55;4.60;;;2.40;;
7160;SDS011;3622;53.576;9.978;2023-02-20T01:01:22;2.60;;;1.97;;
7160;SDS011;3622;53.576;9.978;2023-02-20T01:03:48;2.40;;;2.20;;
7160;SDS011;3622;53.576;9.978;2023-02-20T01:06:14;3.50;;;2.40;;
7160;SDS011;3622;53.576;9.978;2023-02-20T01:08:41;3.10;;;2.37;;
7160;SDS011;3622;53.576;9.978;2023-02-20T01:11:06;3.43;;;2.00;;
7160;SDS011;3622;53.576;9.978;2023-02-20T01:13:32;2.83;;;2.23;;
7160;SDS011;3622;53.576;9.978;2023-02-20T01:15:58;2.70;;;2.27;;
7160;SDS011;3622;53.576;9.978;2023-02-20T01:18:25;4.90;;;2.60;;
7160;SDS011;3622;53.576;9.978;2023-02-20T01:20:51;3.00;;;1.70;;
7160;SDS011;3622;53.576;9.978;2023-02-20T01:23:17;3.20;;;1.93;;
7160;SDS011;3622;53.576;9.978;2023-02-20T01:25:43;1.93;;;1.77;;
7160;SDS011;3622;53.576;9.978;2023-02-20T01:28:09;3.03;;;2.37;;
7160;SDS011;3622;53.576;9.978;2023-02-20T01:30:35;2.17;;;2.00;;
7160;SDS011;3622;53.576;9.978;2023-02-20T01:33:01;3.03;;;2.20;;
7160;SDS011;3622;53.576;9.978;2023-02-20T01:35:27;2.03;;;1.77;;
7160;SDS011;3622;53.576;9.978;2023-02-20T01:37:56;2.67;;;2.00;;
7160;SDS011;3622;53.576;9.978;2023-02-20T01:40:22;2.13;;;1.93;;
7160;SDS011;3622;53.576;9.978;2023-02-20T01:42:48;3.30;;;2.00;;
7160;SDS011;3622;53.576;9.978;2023-02-20T01:45:34;5.93;;;2.33;;
7160;SDS011;3622;53.576;9.978;2023-02-20T01:48:00;3.57;;;2.07;;
7160;SDS011;3622;53.576;9.978;2023-02-20T01:50:28;2.23;;;2.03;;
7160;SDS011;3622;53.576;9.978;2023-02-20T01:52:55;2.60;;;2.17;;
7160;SDS011;3622;53.576;9.978;2023-02-20T01:55:23;2.30;;;2.10;;
7160;SDS011;3622;53.576;9.978;2023-02-20T01:57:52;2.43;;;2.23;;
7160;SDS011;3622;53.576;9.978;2023-02-20T02:00:20;2.30;;;2.10;;
7160;SDS011;3622;53.576;9.978;2023-02-20T02:02:49;4.03;;;2.33;;
7160;SDS011;3622;53.576;9.978;2023-02-20T02:05:16;4.37;;;2.23;;
7160;SDS011;3622;53.576;9.978;2023-02-20T02:07:43;2.57;;;2.37;;
7160;SDS011;3622;53.576;9.978;2023-02-20T02:10:13;2.50;;;2.30;;
7160;SDS011;3622;53.576;9.978;2023-02-20T02:12:41;2.47;;;2.27;;
7160;SDS011;3622;53.576;9.978;2023-02-20T02:15:19;2.50;;;2.33;;
7160;SDS011;3622;53.576;9.978;2023-02-20T02:17:49;2.80;;;2.60;;
7160;SDS011;3622;53.576;9.978;2023-02-20T02:25:40;4.37;;;2.63;;
7160;SDS011;3622;53.576;9.978;2023-02-20T02:28:19;3.47;;;3.10;;
7160;SDS011;3622;53.576;9.978;2023-02-20T02:30:55;4.33;;;3.10;;
7160;SDS011;3622;53.576;9.978;2023-02-20T02:34:11;4.43;;;3.20;;
7160;SDS011;3622;53.576;9.978;2023-02-20T02:39:15;3.20;;;2.87;;
7160;SDS011;3622;53.576;9.978;2023-02-20T02:41:48;5.13;;;3.70;;
7160;SDS011;3622;53.576;9.978;2023-02-20T02:44:18;7.03;;;3.37;;
7160;SDS011;3622;53.576;9.978;2023-02-20T02:46:56;3.40;;;2.97;;
7160;SDS011;3622;53.576;9.978;2023-02-20T02:49:25;3.60;;;3.10;;
7160;SDS011;3622;53.576;9.978;2023-02-20T02:51:53;4.40;;;3.30;;
7160;SDS011;3622;53.576;9.978;2023-02-20T02:54:21;3.50;;;3.20;;
7160;SDS011;3622;53.576;9.978;2023-02-20T02:56:50;4.33;;;3.20;;
7160;SDS011;3622;53.576;9.978;2023-02-20T02:59:23;3.63;;;3.33;;
7160;SDS011;3622;53.576;9.978;2023-02-20T03:01:58;4.90;;;4.00;;
7160;SDS011;3622;53.576;9.978;2023-02-20T03:04:26;5.77;;;3.23;;
7160;SDS011;3622;53.576;9.978;2023-02-20T03:06:53;3.67;;;3.20;;
7160;SDS011;3622;53.576;9.978;2023-02-20T03:09:24;4.50;;;3.40;;
7160;SDS011;3622;53.576;9.978;2023-02-20T03:11:51;5.20;;;3.70;;
7160;SDS011;3622;53.576;9.978;2023-02-20T03:14:20;4.10;;;3.70;;
7160;SDS011;3622;53.576;9.978;2023-02-20T03:17:11;6.80;;;3.43;;
7160;SDS011;3622;53.576;9.978;2023-02-20T03:19:45;5.20;;;4.03;;
7160;SDS011;3622;53.576;9.978;2023-02-20T03:22:19;8.27;;;5.00;;
7160;SDS011;3622;53.576;9.978;2023-02-20T03:24:47;6.40;;;3.83;;
7160;SDS011;3622;53.576;9.978;2023-02-20T03:27:25;4.60;;;3.33;;
7160;SDS011;3622;53.576;9.978;2023-02-20T03:29:55;6.67;;;4.60;;
7160;SDS011;3622;53.576;9.978;2023-02-20T03:32:23;4.63;;;3.67;;
7160;SDS011;3622;53.576;9.978;2023-02-20T03:35:09;4.67;;;4.20;;
7160;SDS011;3622;53.576;9.978;2023-02-20T03:37:55;5.80;;;4.13;;
7160;SDS011;3622;53.576;9.978;2023-02-20T03:40:41;8.33;;;4.30;;
7160;SDS011;3622;53.576;9.978;2023-02-20T03:43:26;5.80;;;3.87;;
7160;SDS011;3622;53.576;9.978;2023-02-20T03:45:58;6.10;;;4.50;;
7160;SDS011;3622;53.576;9.978;2023-02-20T03:48:31;7.00;;;4.40;;
7160;SDS011;3622;53.576;9.978;2023-02-20T03:50:59;5.67;;;4.30;;
7160;SDS011;3622;53.576;9.978;2023-02-20T03:53:25;4.43;;;3.60;;
7160;SDS011;3622;53.576;9.978;2023-02-20T03:55:52;6.47;;;4.60;;
7160;SDS011;3622;53.576;9.978;2023-02-20T03:58:20;7.93;;;4.03;;
7160;SDS011;3622;53.576;9.978;2023-02-20T04:00:47;7.03;;;4.77;;
7160;SDS011;3622;53.576;9.978;2023-02-20T04:03:22;5.67;;;4.50;;
7160;SDS011;3622;53.576;9.978;2023-02-20T04:05:49;6.43;;;4.37;;
7160;SDS011;3622;53.576;9.978;2023-02-20T04:08:17;6.20;;;4.23;;
7160;SDS011;3622;53.576;9.978;2023-02-20T04:10:46;3.83;;;3.53;;
7160;SDS011;3622;53.576;9.978;2023-02-20T04:13:14;5.70;;;4.73;;
7160;SDS011;3622;53.576;9.978;2023-02-20T04:15:40;7.13;;;4.63;;
7160;SDS011;3622;53.576;9.978;2023-02-20T04:18:08;6.50;;;5.00;;
7160;SDS011;3622;53.576;9.978;2023-02-20T04:20:35;7.27;;;4.90;;
7160;SDS011;3622;53.576;9.978;2023-02-20T04:23:03;6.47;;;5.20;;
7160;SDS011;3622;53.576;9.978;2023-02-20T04:25:33;7.40;;;4.83;;
7160;SDS011;3622;53.576;9.978;2023-02-20T04:28:01;6.63;;;4.80;;
7160;SDS011;3622;53.576;9.978;2023-02-20T04:30:27;8.00;;;5.40;;
7160;SDS011;3622;53.576;9.978;2023-02-20T04:32:53;10.67;;;5.70;;
7160;SDS011;3622;53.576;9.978;2023-02-20T04:35:19;8.97;;;5.23;;
7160;SDS011;3622;53.576;9.978;2023-02-20T04:37:45;6.73;;;4.80;;
7160;SDS011;3622;53.576;9.978;2023-02-20T04:40:12;11.47;;;5.80;;
7160;SDS011;3622;53.576;9.978;2023-02-20T04:42:39;7.40;;;5.53;;
7160;SDS011;3622;53.576;9.978;2023-02-20T04:45:05;7.60;;;5.00;;
7160;SDS011;3622;53.576;9.978;2023-02-20T04:47:31;7.40;;;6.20;;
7160;SDS011;3622;53.576;9.978;2023-02-20T04:49:57;10.60;;;6.23;;
7160;SDS011;3622;53.576;9.978;2023-02-20T04:52:23;8.57;;;6.33;;
7160;SDS011;3622;53.576;9.978;2023-02-20T04:54:50;9.40;;;6.43;;
7160;SDS011;3622;53.576;9.978;2023-02-20T04:57:16;8.70;;;5.87;;
7160;SDS011;3622;53.576;9.978;2023-02-20T04:59:42;7.43;;;6.13;;
7160;SDS011;3622;53.576;9.978;2023-02-20T05:02:08;9.07;;;6.53;;
7160;SDS011;3622;53.576;9.978;2023-02-20T05:04:34;8.03;;;6.10;;
7160;SDS011;3622;53.576;9.978;2023-02-20T05:07:00;12.67;;;6.67;;
7160;SDS011;3622;53.576;9.978;2023-02-20T05:09:26;8.73;;;5.80;;
7160;SDS011;3622;53.576;9.978;2023-02-20T05:11:53;7.73;;;5.97;;
7160;SDS011;3622;53.576;9.978;2023-02-20T05:14:19;15.77;;;6.80;;
7160;SDS011;3622;53.576;9.978;2023-02-20T05:16:46;11.60;;;6.70;;
7160;SDS011;3622;53.576;9.978;2023-02-20T05:19:13;8.50;;;6.10;;
7160;SDS011;3622;53.576;9.978;2023-02-20T05:21:43;12.43;;;7.23;;
7160;SDS011;3622;53.576;9.978;2023-02-20T05:24:28;11.30;;;6.83;;
7160;SDS011;3622;53.576;9.978;2023-02-20T05:26:55;12.00;;;6.63;;
7160;SDS011;3622;53.576;9.978;2023-02-20T05:29:21;14.63;;;7.30;;
7160;SDS011;3622;53.576;9.978;2023-02-20T05:31:47;12.57;;;7.13;;
7160;SDS011;3622;53.576;9.978;2023-02-20T05:34:13;9.60;;;6.60;;
7160;SDS011;3622;53.576;9.978;2023-02-20T05:36:40;13.10;;;8.03;;
7160;SDS011;3622;53.576;9.978;2023-02-20T05:39:06;12.73;;;7.27;;
7160;SDS011;3622;53.576;9.978;2023-02-20T05:41:32;14.33;;;7.33;;
7160;SDS011;3622;53.576;9.978;2023-02-20T05:43:58;12.17;;;7.90;;
7160;SDS011;3622;53.576;9.978;2023-02-20T05:46:25;10.13;;;7.37;;
7160;SDS011;3622;53.576;9.978;2023-02-20T05:48:51;14.87;;;7.97;;
7160;SDS011;3622;53.576;9.978;2023-02-20T05:51:25;13.93;;;8.03;;
7160;SDS011;3622;53.576;9.978;2023-02-20T05:53:51;13.23;;;7.53;;
7160;SDS011;3622;53.576;9.978;2023-02-20T05:56:17;12.07;;;7.30;;
7160;SDS011;3622;53.576;9.978;2023-02-20T05:58:44;13.33;;;8.57;;
7160;SDS011;3622;53.576;9.978;2023-02-20T06:01:20;15.50;;;9.17;;
7160;SDS011;3622;53.576;9.978;2023-02-20T06:03:46;17.13;;;8.93;;
7160;SDS011;3622;53.576;9.978;2023-02-20T06:06:12;12.50;;;8.83;;
7160;SDS011;3622;53.576;9.978;2023-02-20T06:08:38;17.03;;;8.40;;
7160;SDS011;3622;53.576;9.978;2023-02-20T06:11:05;18.80;;;8.63;;
7160;SDS011;3622;53.576;9.978;2023-02-20T06:13:31;13.00;;;8.40;;
7160;SDS011;3622;53.576;9.978;2023-02-20T06:15:57;11.67;;;8.00;;
7160;SDS011;3622;53.576;9.978;2023-02-20T06:18:23;15.90;;;8.90;;
7160;SDS011;3622;53.576;9.978;2023-02-20T06:20:49;17.00;;;9.30;;
7160;SDS011;3622;53.576;9.978;2023-02-20T06:23:15;17.80;;;9.13;;
7160;SDS011;3622;53.576;9.978;2023-02-20T06:25:41;16.90;;;9.00;;
7160;SDS011;3622;53.576;9.978;2023-02-20T06:28:07;16.90;;;8.70;;
7160;SDS011;3622;53.576;9.978;2023-02-20T06:30:32;15.03;;;9.00;;
7160;SDS011;3622;53.576;9.978;2023-02-20T06:32:58;19.03;;;10.57;;
7160;SDS011;3622;53.576;9.978;2023-02-20T06:35:24;14.13;;;8.93;;
7160;SDS011;3622;53.576;9.978;2023-02-20T06:37:50;15.63;;;8.70;;
7160;SDS011;3622;53.576;9.978;2023-02-20T06:40:16;15.43;;;8.90;;
7160;SDS011;3622;53.576;9.978;2023-02-20T06:42:42;17.00;;;9.13;;
7160;SDS011;3622;53.576;9.978;2023-02-20T06:45:08;15.40;;;8.50;;
7160;SDS011;3622;53.576;9.978;2023-02-20T06:47:35;14.57;;;8.67;;
7160;SDS011;3622;53.576;9.978;2023-02-20T06:50:01;14.93;;;8.90;;
7160;SDS011;3622;53.576;9.978;2023-02-20T06:52:27;18.07;;;10.60;;
7160;SDS011;3622;53.576;9.978;2023-02-20T06:54:53;17.17;;;10.23;;
7160;SDS011;3622;53.576;9.978;2023-02-20T06:57:19;18.47;;;10.60;;
7160;SDS011;3622;53.576;9.978;2023-02-20T06:59:45;18.80;;;10.37;;
7160;SDS011;3622;53.576;9.978;2023-02-20T07:02:13;19.50;;;10.47;;
7160;SDS011;3622;53.576;9.978;2023-02-20T07:04:40;20.13;;;10.37;;
7160;SDS011;3622;53.576;9.978;2023-02-20T07:07:06;19.63;;;10.50;;
7160;SDS011;3622;53.576;9.978;2023-02-20T07:09:32;18.30;;;10.13;;
7160;SDS011;3622;53.576;9.978;2023-02-20T07:11:58;17.83;;;11.07;;
7160;SDS011;3622;53.576;9.978;2023-02-20T07:14:24;19.50;;;11.23;;
7160;SDS011;3622;53.576;9.978;2023-02-20T07:16:50;18.93;;;11.40;;
7160;SDS011;3622;53.576;9.978;2023-02-20T07:19:15;19.10;;;12.00;;
7160;SDS011;3622;53.576;9.978;2023-02-20T07:21:41;22.87;;;12.57;;
7160;SDS011;3622;53.576;9.978;2023-02-20T07:24:07;21.80;;;12.60;;
7160;SDS011;3622;53.576;9.978;2023-02-20T07:26:33;26.47;;;12.13;;
7160;SDS011;3622;53.576;9.978;2023-02-20T07:29:01;22.40;;;12.97;;
7160;SDS011;3622;53.576;9.978;2023-02-20T07:31:27;27.27;;;12.40;;
7160;SDS011;3622;53.576;9.978;2023-02-20T07:33:53;24.20;;;13.73;;
7160;SDS011;3622;53.576;9.978;2023-02-20T07:36:19;22.27;;;12.60;;
7160;SDS011;3622;53.576;9.978;2023-02-20T07:38:52;23.33;;;13.10;;
7160;SDS011;3622;53.576;9.978;2023-02-20T07:41:18;26.90;;;14.23;;
7160;SDS011;3622;53.576;9.978;2023-02-20T07:43:44;24.13;;;14.20;;
7160;SDS011;3622;53.576;9.978;2023-02-20T07:46:10;28.17;;;15.40;;
7160;SDS011;3622;53.576;9.978;2023-02-20T07:48:36;23.30;;;13.93;;
7160;SDS011;3622;53.576;9.978;2023-02-20T07:51:02;23.13;;;14.13;;
7160;SDS011;3622;53.576;9.978;2023-02-20T07:53:28;25.70;;;13.97;;
7160;SDS011;3622;53.576;9.978;2023-02-20T07:55:54;25.53;;;14.33;;
7160;SDS011;3622;53.576;9.978;2023-02-20T07:58:20;26.73;;;14.20;;
7160;SDS011;3622;53.576;9.978;2023-02-20T08:00:46;28.10;;;15.40;;
7160;SDS011;3622;53.576;9.978;2023-02-20T08:03:11;27.27;;;14.97;;
7160;SDS011;3622;53.576;9.978;2023-02-20T08:05:37;34.23;;;14.80;;
7160;SDS011;3622;53.576;9.978;2023-02-20T08:08:03;26.83;;;15.40;;
7160;SDS011;3622;53.576;9.978;2023-02-20T08:10:29;25.47;;;14.43;;
7160;SDS011;3622;53.576;9.978;2023-02-20T08:12:55;24.50;;;14.30;;
7160;SDS011;3622;53.576;9.978;2023-02-20T08:15:22;31.93;;;16.43;;
7160;SDS011;3622;53.576;9.978;2023-02-20T08:17:48;31.50;;;16.00;;
7160;SDS011;3622;53.576;9.978;2023-02-20T08:20:14;26.53;;;15.40;;
7160;SDS011;3622;53.576;9.978;2023-02-20T08:22:42;31.30;;;16.17;;
7160;SDS011;3622;53.576;9.978;2023-02-20T08:25:08;27.27;;;15.30;;
7160;SDS011;3622;53.576;9.978;2023-02-20T08:27:34;37.77;;;15.80;;
7160;SDS011;3622;53.576;9.978;2023-02-20T08:30:04;30.10;;;16.30;;
7160;SDS011;3622;53.576;9.978;2023-02-20T08:32:30;28.40;;;16.47;;
7160;SDS011;3622;53.576;9.978;2023-02-20T08:34:56;31.97;;;15.90;;
7160;SDS011;3622;53.576;9.978;2023-02-20T08:37:22;30.03;;;16.03;;
7160;SDS011;3622;53.576;9.978;2023-02-20T08:39:48;30.57;;;15.30;;
7160;SDS011;3622;53.576;9.978;2023-02-20T08:42:15;26.43;;;15.53;;
7160;SDS011;3622;53.576;9.978;2023-02-20T08:44:41;29.70;;;16.77;;
7160;SDS011;3622;53.576;9.978;2023-02-20T08:47:07;38.37;;;16.57;;
7160;SDS011;3622;53.576;9.978;2023-02-20T08:49:33;24.07;;;13.80;;
7160;SDS011;3622;53.576;9.978;2023-02-20T08:51:59;32.27;;;16.47;;
7160;SDS011;3622;53.576;9.978;2023-02-20T08:54:27;33.60;;;16.93;;
7160;SDS011;3622;53.576;9.978;2023-02-20T08:56:53;27.90;;;14.90;;
7160;SDS011;3622;53.576;9.978;2023-02-20T08:59:19;28.30;;;14.70;;
7160;SDS011;3622;53.576;9.978;2023-02-20T09:01:45;34.70;;;15.50;;
7160;SDS011;3622;53.576;9.978;2023-02-20T09:04:11;34.20;;;16.57;;
7160;SDS011;3622;53.576;9.978;2023-02-20T09:06:37;34.20;;;14.27;;
7160;SDS011;3622;53.576;9.978;2023-02-20T09:09:03;29.53;;;15.50;;
7160;SDS011;3622;53.576;9.978;2023-02-20T09:11:29;31.10;;;14.90;;
7160;SDS011;3622;53.576;9.978;2023-02-20T09:13:55;32.90;;;15.50;;
7160;SDS011;3622;53.576;9.978;2023-02-20T09:16:22;39.23;;;16.10;;
7160;SDS011;3622;53.576;9.978;2023-02-20T09:18:48;30.93;;;15.50;;
7160;SDS011;3622;53.576;9.978;2023-02-20T09:21:15;28.50;;;14.93;;
7160;SDS011;3622;53.576;9.978;2023-02-20T09:23:41;31.30;;;15.53;;
7160;SDS011;3622;53.576;9.978;2023-02-20T09:26:07;36.70;;;15.23;;
7160;SDS011;3622;53.576;9.978;2023-02-20T09:28:33;34.37;;;16.30;;
7160;SDS011;3622;53.576;9.978;2023-02-20T09:30:59;33.33;;;15.83;;
7160;SDS011;3622;53.576;9.978;2023-02-20T09:33:26;40.30;;;15.17;;
7160;SDS011;3622;53.576;9.978;2023-02-20T09:35:52;34.77;;;15.80;;
7160;SDS011;3622;53.576;9.978;2023-02-20T09:38:19;34.07;;;15.03;;
7160;SDS011;3622;53.576;9.978;2023-02-20T09:40:45;39.60;;;16.50;;
7160;SDS011;3622;53.576;9.978;2023-02-20T09:43:26;34.57;;;15.53;;
7160;SDS011;3622;53.576;9.978;2023-02-20T09:46:01;34.00;;;16.10;;
7160;SDS011;3622;53.576;9.978;2023-02-20T09:51:19;36.00;;;13.47;;
7160;SDS011;3622;53.576;9.978;2023-02-20T09:53:57;35.20;;;15.50;;
7160;SDS011;3622;53.576;9.978;2023-02-20T09:56:27;36.13;;;15.47;;
7160;SDS011;3622;53.576;9.978;2023-02-20T09:58:56;31.10;;;15.57;;
7160;SDS011;3622;53.576;9.978;2023-02-20T10:01:24;33.37;;;15.20;;
7160;SDS011;3622;53.576;9.978;2023-02-20T10:04:04;32.23;;;14.07;;
7160;SDS011;3622;53.576;9.978;2023-02-20T10:06:32;30.90;;;14.07;;
7160;SDS011;3622;53.576;9.978;2023-02-20T10:08:59;39.93;;;14.83;;
7160;SDS011;3622;53.576;9.978;2023-02-20T10:14:02;27.70;;;12.57;;
7160;SDS011;3622;53.576;9.978;2023-02-20T10:16:38;28.47;;;13.17;;
7160;SDS011;3622;53.576;9.978;2023-02-20T10:19:14;23.63;;;12.00;;
7160;SDS011;3622;53.576;9.978;2023-02-20T10:21:44;24.87;;;11.70;;
7160;SDS011;3622;53.576;9.978;2023-02-20T10:24:22;21.83;;;12.30;;
7160;SDS011;3622;53.576;9.978;2023-02-20T10:26:53;23.00;;;11.43;;
7160;SDS011;3622;53.576;9.978;2023-02-20T10:29:24;27.43;;;12.10;;
7160;SDS011;3622;53.576;9.978;2023-02-20T10:32:05;23.23;;;9.77;;
7160;SDS011;3622;53.576;9.978;2023-02-20T10:34:37;14.77;;;9.50;;
7160;SDS011;3622;53.576;9.978;2023-02-20T10:37:16;20.60;;;10.00;;
7160;SDS011;3622;53.576;9.978;2023-02-20T10:39:51;21.00;;;9.13;;
7160;SDS011;3622;53.576;9.978;2023-02-20T10:42:22;20.30;;;9.73;;
7160;SDS011;3622;53.576;9.978;2023-02-20T10:44:50;14.37;;;8.20;;
7160;SDS011;3622;53.576;9.978;2023-02-20T10:47:26;20.23;;;9.80;;
7160;SDS011;3622;53.576;9.978;2023-02-20T10:50:04;16.70;;;7.20;;
7160;SDS011;3622;53.576;9.978;2023-02-20T10:52:34;15.33;;;9.17;;
7160;SDS011;3622;53.576;9.978;2023-02-20T10:55:04;17.80;;;7.40;;
7160;SDS011;3622;53.576;9.978;2023-02-20T10:57:36;13.07;;;8.33;;
7160;SDS011;3622;53.576;9.978;2023-02-20T11:00:08;13.67;;;7.90;;
7160;SDS011;3622;53.576;9.978;2023-02-20T11:02:39;17.33;;;7.50;;
7160;SDS011;3622;53.576;9.978;2023-02-20T11:05:07;16.90;;;8.10;;
7160;SDS011;3622;53.576;9.978;2023-02-20T11:07:33;13.13;;;7.03;;
7160;SDS011;3622;53.576;9.978;2023-02-20T11:09:59;10.57;;;7.47;;
7160;SDS011;3622;53.576;9.978;2023-02-20T11:12:29;12.37;;;6.73;;
7160;SDS011;3622;53.576;9.978;2023-02-20T11:14:58;17.53;;;8.23;;
7160;SDS011;3622;53.576;9.978;2023-02-20T11:17:26;13.33;;;7.30;;
7160;SDS011;3622;53.576;9.978;2023-02-20T11:19:57;12.43;;;6.57;;
7160;SDS011;3622;53.576;9.978;2023-02-20T11:22:41;14.03;;;6.83;;
7160;SDS011;3622;53.576;9.978;2023-02-20T11:27:57;11.57;;;6.30;;
7160;SDS011;3622;53.576;9.978;2023-02-20T11:30:28;9.80;;;5.10;;
7160;SDS011;3622;53.576;9.978;2023-02-20T11:32:58;11.53;;;6.10;;
7160;SDS011;3622;53.576;9.978;2023-02-20T11:35:27;11.23;;;5.80;;
7160;SDS011;3622;53.576;9.978;2023-02-20T11:40:41;13.47;;;6.13;;
7160;SDS011;3622;53.576;9.978;2023-02-20T11:43:21;12.20;;;5.90;;
7160;SDS011;3622;53.576;9.978;2023-02-20T11:45:48;9.30;;;4.77;;
7160;SDS011;3622;53.576;9.978;2023-02-20T11:48:19;11.43;;;5.50;;
7160;SDS011;3622;53.576;9.978;2023-02-20T11:50:52;7.43;;;5.00;;
7160;SDS011;3622;53.576;9.978;2023-02-20T11:53:22;8.67;;;5.17;;
7160;SDS011;3622;53.576;9.978;2023-02-20T11:55:49;10.30;;;4.63;;
7160;SDS011;3622;53.576;9.978;2023-02-20T11:58:25;10.50;;;4.90;;
7160;SDS011;3622;53.576;9.978;2023-02-20T12:00:52;8.00;;;4.70;;
7160;SDS011;3622;53.576;9.978;2023-02-20T12:03:20;12.13;;;4.70;;
7160;SDS011;3622;53.576;9.978;2023-02-20T12:05:47;7.03;;;5.17;;
7160;SDS011;3622;53.576;9.978;2023-02-20T12:10:49;9.80;;;4.43;;
7160;SDS011;3622;53.576;9.978;2023-02-20T12:13:17;6.00;;;4.03;;
7160;SDS011;3622;53.576;9.978;2023-02-20T12:15:44;5.50;;;3.93;;
7160;SDS011;3622;53.576;9.978;2023-02-20T12:21:22;4.57;;;3.77;;
7160;SDS011;3622;53.576;9.978;2023-02-20T12:26:51;6.20;;;3.97;;
7160;SDS011;3622;53.576;9.978;2023-02-20T12:29:21;7.57;;;3.63;;
7160;SDS011;3622;53.576;9.978;2023-02-20T12:42:47;7.67;;;4.70;;
7160;SDS011;3622;53.576;9.978;2023-02-20T12:45:22;6.70;;;3.27;;
7160;SDS011;3622;53.576;9.978;2023-02-20T12:48:00;6.97;;;2.93;;
7160;SDS011;3622;53.576;9.978;2023-02-20T12:58:46;6.07;;;4.37;;
7160;SDS011;3622;53.576;9.978;2023-02-20T13:01:13;9.90;;;5.30;;
7160;SDS011;3622;53.576;9.978;2023-02-20T13:06:37;9.90;;;4.20;;
7160;SDS011;3622;53.576;9.978;2023-02-20T13:11:33;8.83;;;3.50;;
7160;SDS011;3622;53.576;9.978;2023-02-20T13:14:10;10.40;;;4.83;;
7160;SDS011;3622;53.576;9.978;2023-02-20T13:19:29;9.13;;;3.80;;
7160;SDS011;3622;53.576;9.978;2023-02-20T13:21:59;9.23;;;3.23;;
7160;SDS011;3622;53.576;9.978;2023-02-20T13:24:28;6.67;;;3.40;;
7160;SDS011;3622;53.576;9.978;2023-02-20T13:26:55;4.70;;;3.67;;
7160;SDS011;3622;53.576;9.978;2023-02-20T13:29:23;4.77;;;3.60;;
7160;SDS011;3622;53.576;9.978;2023-02-20T13:31:54;7.77;;;3.60;;
7160;SDS011;3622;53.576;9.978;2023-02-20T13:36:47;9.13;;;4.00;;
7160;SDS011;3622;53.576;9.978;2023-02-20T13:46:54;6.30;;;3.77;;
7160;SDS011;3622;53.576;9.978;2023-02-20T13:52:29;9.63;;;3.53;;
7160;SDS011;3622;53.576;9.978;2023-02-20T13:54:51;8.00;;;3.70;;
7160;SDS011;3622;53.576;9.978;2023-02-20T13:57:17;7.83;;;4.40;;
7160;SDS011;3622;53.576;9.978;2023-02-20T13:59:43;7.77;;;3.77;;
7160;SDS011;3622;53.576;9.978;2023-02-20T14:02:12;9.93;;;4.67;;
7160;SDS011;3622;53.576;9.978;2023-02-20T14:04:50;12.03;;;4.07;;
7160;SDS011;3622;53.576;9.978;2023-02-20T14:07:25;9.47;;;3.90;;
7160;SDS011;3622;53.576;9.978;2023-02-20T14:10:01;6.23;;;3.20;;
7160;SDS011;3622;53.576;9.978;2023-02-20T14:12:28;8.50;;;3.93;;
7160;SDS011;3622;53.576;9.978;2023-02-20T14:14:54;7.07;;;3.70;;
7160;SDS011;3622;53.576;9.978;2023-02-20T14:17:20;9.30;;;4.67;;
7160;SDS011;3622;53.576;9.978;2023-02-20T14:19:48;4.50;;;3.40;;
7160;SDS011;3622;53.576;9.978;2023-02-20T14:22:23;9.57;;;3.50;;
7160;SDS011;3622;53.576;9.978;2023-02-20T14:27:34;7.97;;;3.70;;
7160;SDS011;3622;53.576;9.978;2023-02-20T14:32:30;14.73;;;4.20;;
7160;SDS011;3622;53.576;9.978;2023-02-20T14:34:58;6.57;;;3.40;;
7160;SDS011;3622;53.576;9.978;2023-02-20T14:37:42;4.37;;;3.00;;
7160;SDS011;3622;53.576;9.978;2023-02-20T14:40:15;7.73;;;2.90;;
7160;SDS011;3622;53.576;9.978;2023-02-20T14:42:43;6.10;;;2.90;;
7160;SDS011;3622;53.576;9.978;2023-02-20T14:45:14;8.70;;;3.77;;
7160;SDS011;3622;53.576;9.978;2023-02-20T14:50:20;6.30;;;3.70;;
7160;SDS011;3622;53.576;9.978;2023-02-20T14:52:59;6.60;;;3.83;;
7160;SDS011;3622;53.576;9.978;2023-02-20T14:55:25;7.50;;;4.20;;
7160;SDS011;3622;53.576;9.978;2023-02-20T14:57:51;5.40;;;3.53;;
7160;SDS011;3622;53.576;9.978;2023-02-20T15:02:45;5.53;;;3.43;;
7160;SDS011;3622;53.576;9.978;2023-02-20T15:05:13;9.13;;;4.13;;
7160;SDS011;3622;53.576;9.978;2023-02-20T15:07:42;4.20;;;3.40;;
7160;SDS011;3622;53.576;9.978;2023-02-20T15:10:29;4.50;;;2.90;;
7160;SDS011;3622;53.576;9.978;2023-02-20T15:12:59;9.93;;;3.90;;
7160;SDS011;3622;53.576;9.978;2023-02-20T15:15:27;5.97;;;3.47;;
7160;SDS011;3622;53.576;9.978;2023-02-20T15:18:07;5.43;;;2.87;;
7160;SDS011;3622;53.576;9.978;2023-02-20T15:20:42;9.17;;;3.40;;
7160;SDS011;3622;53.576;9.978;2023-02-20T15:23:21;7.87;;;3.47;;
7160;SDS011;3622;53.576;9.978;2023-02-20T15:25:48;5.93;;;2.90;;
7160;SDS011;3622;53.576;9.978;2023-02-20T15:33:29;13.10;;;3.63;;
7160;SDS011;3622;53.576;9.978;2023-02-20T15:35:55;3.93;;;3.47;;
7160;SDS011;3622;53.576;9.978;2023-02-20T15:38:23;11.63;;;4.70;;
7160;SDS011;3622;53.576;9.978;2023-02-20T15:40:54;4.07;;;3.50;;
7160;SDS011;3622;53.576;9.978;2023-02-20T15:43:20;8.40;;;3.57;;
7160;SDS011;3622;53.576;9.978;2023-02-20T15:45:46;5.70;;;3.50;;
7160;SDS011;3622;53.576;9.978;2023-02-20T15:48:12;12.27;;;4.17;;
7160;SDS011;3622;53.576;9.978;2023-02-20T15:50:38;13.23;;;3.80;;
7160;SDS011;3622;53.576;9.978;2023-02-20T15:53:04;4.47;;;3.00;;
7160;SDS011;3622;53.576;9.978;2023-02-20T15:55:33;10.40;;;4.43;;
7160;SDS011;3622;53.576;9.978;2023-02-20T15:57:59;5.23;;;3.40;;
7160;SDS011;3622;53.576;9.978;2023-02-20T16:00:26;5.30;;;3.40;;
7160;SDS011;3622;53.576;9.978;2023-02-20T16:02:54;7.77;;;3.17;;
7160;SDS011;3622;53.576;9.978;2023-02-20T16:05:20;5.67;;;3.30;;
7160;SDS011;3622;53.576;9.978;2023-02-20T16:07:48;3.97;;;2.97;;
7160;SDS011;3622;53.576;9.978;2023-02-20T16:10:16;6.40;;;3.20;;
7160;SDS011;3622;53.576;9.978;2023-02-20T16:12:43;12.57;;;5.53;;
7160;SDS011;3622;53.576;9.978;2023-02-20T16:15:11;5.97;;;3.40;;
7160;SDS011;3622;53.576;9.978;2023-02-20T16:17:40;6.60;;;3.80;;
7160;SDS011;3622;53.576;9.978;2023-02-20T16:20:12;9.67;;;3.80;;
7160;SDS011;3622;53.576;9.978;2023-02-20T16:22:38;7.70;;;3.80;;
7160;SDS011;3622;53.576;9.978;2023-02-20T16:25:04;5.70;;;3.80;;
7160;SDS011;3622;53.576;9.978;2023-02-20T16:27:30;7.43;;;4.20;;
7160;SDS011;3622;53.576;9.978;2023-02-20T16:29:56;8.27;;;4.07;;
7160;SDS011;3622;53.576;9.978;2023-02-20T16:32:23;8.53;;;4.03;;
7160;SDS011;3622;53.576;9.978;2023-02-20T16:34:49;8.03;;;3.27;;
7160;SDS011;3622;53.576;9.978;2023-02-20T16:37:16;3.60;;;3.00;;